sensor_id;sensor_type;location;lat;lon;timestamp;P1;durP1;ratioP1;P2;durP2;ratioP2
4307;SDS011;2167;53.448;9.984;2023-02-08T03:02:55;8.27;;;6.10;;
4307;SDS011;2167;53.448;9.984;2023-02-08T03:05:23;14.50;;;6.27;;
4307;SDS011;2167;53.448;9.984;2023-02-08T03:07:54;9.30;;;5.77;;
4307;SDS011;2167;53.448;9.984;2023-02-08T03:16:30;22.27;;;10.38;;
4307;SDS011;2167;53.448;9.984;2023-02-08T03:24:35;9.73;;;5.87;;
4307;SDS011;2167;53.448;9.984;2023-02-08T03:27:25;20.17;;;10.98;;
4307;SDS011;2167;53.448;9.984;2023-02-08T03:32:53;11.60;;;7.10;;
4307;SDS011;2167;53.448;9.984;2023-02-08T03:38:04;17.35;;;10.32;;
4307;SDS011;2167;53.448;9.984;2023-02-08T03:40:52;10.20;;;7.10;;
4307;SDS011;2167;53.448;9.984;2023-02-08T03:43:36;11.90;;;5.30;;
4307;SDS011;2167;53.448;9.984;2023-02-08T03:47:07;10.10;;;6.30;;
4307;SDS011;2167;53.448;9.984;2023-02-08T03:49:06;7.23;;;4.30;;
4307;SDS011;2167;53.448;9.984;2023-02-08T03:51:36;5.47;;;4.63;;
4307;SDS011;2167;53.448;9.984;2023-02-08T03:54:06;10.90;;;4.53;;
4307;SDS011;2167;53.448;9.984;2023-02-08T03:56:37;10.00;;;3.17;;
4307;SDS011;2167;53.448;9.984;2023-02-08T03:59:10;9.87;;;5.00;;
4307;SDS011;2167;53.448;9.984;2023-02-08T04:01:41;12.63;;;5.40;;
4307;SDS011;2167;53.448;9.984;2023-02-08T04:04:10;8.00;;;6.07;;
4307;SDS011;2167;53.448;9.984;2023-02-08T04:06:37;14.33;;;6.73;;
4307;SDS011;2167;53.448;9.984;2023-02-08T04:09:03;12.30;;;5.13;;
4307;SDS011;2167;53.448;9.984;2023-02-08T04:11:29;7.50;;;5.10;;
4307;SDS011;2167;53.448;9.984;2023-02-08T04:13:54;13.57;;;5.37;;
4307;SDS011;2167;53.448;9.984;2023-02-08T04:16:20;8.87;;;5.40;;
4307;SDS011;2167;53.448;9.984;2023-02-08T04:18:45;11.37;;;4.90;;
4307;SDS011;2167;53.448;9.984;2023-02-08T04:21:11;4.97;;;3.70;;
4307;SDS011;2167;53.448;9.984;2023-02-08T04:23:36;13.90;;;6.47;;
4307;SDS011;2167;53.448;9.984;2023-02-08T04:26:02;11.67;;;6.73;;
4307;SDS011;2167;53.448;9.984;2023-02-08T04:28:28;12.23;;;6.20;;
4307;SDS011;2167;53.448;9.984;2023-02-08T04:30:54;7.67;;;4.73;;
4307;SDS011;2167;53.448;9.984;2023-02-08T04:33:21;20.70;;;9.50;;
4307;SDS011;2167;53.448;9.984;2023-02-08T04:35:46;10.47;;;6.97;;
4307;SDS011;2167;53.448;9.984;2023-02-08T04:38:12;11.93;;;6.17;;
4307;SDS011;2167;53.448;9.984;2023-02-08T04:40:37;7.83;;;6.00;;
4307;SDS011;2167;53.448;9.984;2023-02-08T04:43:03;4.93;;;4.40;;
4307;SDS011;2167;53.448;9.984;2023-02-08T04:45:29;4.07;;;3.73;;
4307;SDS011;2167;53.448;9.984;2023-02-08T04:47:56;8.27;;;4.60;;
4307;SDS011;2167;53.448;9.984;2023-02-08T04:50:22;9.15;;;5.60;;
4307;SDS011;2167;53.448;9.984;2023-02-08T04:52:47;7.63;;;5.37;;
4307;SDS011;2167;53.448;9.984;2023-02-08T04:55:13;9.43;;;4.80;;
4307;SDS011;2167;53.448;9.984;2023-02-08T04:57:38;20.00;;;11.50;;
4307;SDS011;2167;53.448;9.984;2023-02-08T05:00:04;11.53;;;8.17;;
4307;SDS011;2167;53.448;9.984;2023-02-08T05:02:30;7.27;;;4.93;;
4307;SDS011;2167;53.448;9.984;2023-02-08T05:04:56;9.03;;;6.53;;
4307;SDS011;2167;53.448;9.984;2023-02-08T05:07:21;24.80;;;12.05;;
4307;SDS011;2167;53.448;9.984;2023-02-08T05:09:48;14.87;;;9.23;;
4307;SDS011;2167;53.448;9.984;2023-02-08T05:12:14;21.20;;;8.80;;
4307;SDS011;2167;53.448;9.984;2023-02-08T05:14:39;11.07;;;8.07;;
4307;SDS011;2167;53.448;9.984;2023-02-08T05:17:05;23.35;;;12.77;;
4307;SDS011;2167;53.448;9.984;2023-02-08T05:19:31;19.93;;;10.57;;
4307;SDS011;2167;53.448;9.984;2023-02-08T05:21:56;24.80;;;13.60;;
4307;SDS011;2167;53.448;9.984;2023-02-08T05:24:22;25.93;;;10.20;;
4307;SDS011;2167;53.448;9.984;2023-02-08T05:26:48;28.00;;;13.10;;
4307;SDS011;2167;53.448;9.984;2023-02-08T05:29:13;21.73;;;8.17;;
4307;SDS011;2167;53.448;9.984;2023-02-08T05:31:39;23.83;;;9.97;;
4307;SDS011;2167;53.448;9.984;2023-02-08T05:34:05;13.60;;;7.80;;
4307;SDS011;2167;53.448;9.984;2023-02-08T05:36:31;13.67;;;10.17;;
4307;SDS011;2167;53.448;9.984;2023-02-08T05:38:56;18.20;;;8.23;;
4307;SDS011;2167;53.448;9.984;2023-02-08T05:41:22;16.30;;;6.90;;
4307;SDS011;2167;53.448;9.984;2023-02-08T05:43:47;12.23;;;5.97;;
4307;SDS011;2167;53.448;9.984;2023-02-08T05:46:13;29.02;;;14.10;;
4307;SDS011;2167;53.448;9.984;2023-02-08T05:48:39;17.73;;;9.70;;
4307;SDS011;2167;53.448;9.984;2023-02-08T05:51:04;16.43;;;8.70;;
4307;SDS011;2167;53.448;9.984;2023-02-08T05:53:30;18.03;;;8.10;;
4307;SDS011;2167;53.448;9.984;2023-02-08T05:55:56;29.40;;;14.40;;
4307;SDS011;2167;53.448;9.984;2023-02-08T05:58:22;20.37;;;10.00;;
4307;SDS011;2167;53.448;9.984;2023-02-08T06:00:48;11.83;;;7.30;;
4307;SDS011;2167;53.448;9.984;2023-02-08T06:03:14;17.03;;;9.10;;
4307;SDS011;2167;53.448;9.984;2023-02-08T06:05:40;7.43;;;5.87;;
4307;SDS011;2167;53.448;9.984;2023-02-08T06:08:07;26.83;;;10.20;;
4307;SDS011;2167;53.448;9.984;2023-02-08T06:10:33;11.87;;;6.87;;
4307;SDS011;2167;53.448;9.984;2023-02-08T06:12:59;19.60;;;10.02;;
4307;SDS011;2167;53.448;9.984;2023-02-08T06:15:25;9.93;;;6.73;;
4307;SDS011;2167;53.448;9.984;2023-02-08T06:17:51;8.87;;;6.30;;
4307;SDS011;2167;53.448;9.984;2023-02-08T06:20:17;11.70;;;8.23;;
4307;SDS011;2167;53.448;9.984;2023-02-08T06:22:43;26.50;;;12.23;;
4307;SDS011;2167;53.448;9.984;2023-02-08T06:25:09;21.57;;;9.87;;
4307;SDS011;2167;53.448;9.984;2023-02-08T06:27:36;14.70;;;7.40;;
4307;SDS011;2167;53.448;9.984;2023-02-08T06:30:02;15.07;;;8.32;;
4307;SDS011;2167;53.448;9.984;2023-02-08T06:32:28;12.70;;;6.70;;
4307;SDS011;2167;53.448;9.984;2023-02-08T06:34:53;10.63;;;7.17;;
4307;SDS011;2167;53.448;9.984;2023-02-08T06:37:19;18.87;;;7.60;;
4307;SDS011;2167;53.448;9.984;2023-02-08T06:39:44;20.97;;;10.83;;
4307;SDS011;2167;53.448;9.984;2023-02-08T06:42:10;10.03;;;7.03;;
4307;SDS011;2167;53.448;9.984;2023-02-08T06:44:36;21.13;;;8.30;;
4307;SDS011;2167;53.448;9.984;2023-02-08T06:47:02;15.27;;;8.37;;
4307;SDS011;2167;53.448;9.984;2023-02-08T06:49:28;32.10;;;13.70;;
4307;SDS011;2167;53.448;9.984;2023-02-08T06:51:54;14.90;;;8.73;;
4307;SDS011;2167;53.448;9.984;2023-02-08T06:54:19;16.63;;;8.60;;
4307;SDS011;2167;53.448;9.984;2023-02-08T06:56:45;16.10;;;6.70;;
4307;SDS011;2167;53.448;9.984;2023-02-08T06:59:11;14.47;;;9.40;;
4307;SDS011;2167;53.448;9.984;2023-02-08T07:01:36;8.40;;;6.73;;
4307;SDS011;2167;53.448;9.984;2023-02-08T07:04:02;19.73;;;8.00;;
4307;SDS011;2167;53.448;9.984;2023-02-08T07:06:28;11.80;;;7.17;;
4307;SDS011;2167;53.448;9.984;2023-02-08T07:08:53;21.70;;;8.27;;
4307;SDS011;2167;53.448;9.984;2023-02-08T07:11:19;21.70;;;9.87;;
4307;SDS011;2167;53.448;9.984;2023-02-08T07:13:46;10.10;;;8.07;;
4307;SDS011;2167;53.448;9.984;2023-02-08T07:16:16;29.40;;;16.02;;
4307;SDS011;2167;53.448;9.984;2023-02-08T07:18:42;22.53;;;10.40;;
4307;SDS011;2167;53.448;9.984;2023-02-08T07:21:08;17.60;;;10.33;;
4307;SDS011;2167;53.448;9.984;2023-02-08T07:23:35;23.60;;;10.47;;
4307;SDS011;2167;53.448;9.984;2023-02-08T07:26:03;13.30;;;7.10;;
4307;SDS011;2167;53.448;9.984;2023-02-08T07:28:34;16.87;;;8.40;;
4307;SDS011;2167;53.448;9.984;2023-02-08T07:31:05;16.20;;;8.07;;
4307;SDS011;2167;53.448;9.984;2023-02-08T07:33:31;15.03;;;7.80;;
4307;SDS011;2167;53.448;9.984;2023-02-08T07:35:57;10.60;;;7.70;;
4307;SDS011;2167;53.448;9.984;2023-02-08T07:38:22;16.33;;;10.70;;
4307;SDS011;2167;53.448;9.984;2023-02-08T07:40:48;32.17;;;15.15;;
4307;SDS011;2167;53.448;9.984;2023-02-08T07:43:13;45.00;;;12.53;;
4307;SDS011;2167;53.448;9.984;2023-02-08T07:45:39;20.27;;;9.00;;
4307;SDS011;2167;53.448;9.984;2023-02-08T07:48:05;14.13;;;9.20;;
4307;SDS011;2167;53.448;9.984;2023-02-08T07:50:31;20.00;;;9.80;;
4307;SDS011;2167;53.448;9.984;2023-02-08T07:52:57;16.53;;;9.20;;
4307;SDS011;2167;53.448;9.984;2023-02-08T07:55:26;13.70;;;9.30;;
4307;SDS011;2167;53.448;9.984;2023-02-08T07:57:59;16.63;;;7.60;;
4307;SDS011;2167;53.448;9.984;2023-02-08T08:00:24;15.10;;;8.70;;
4307;SDS011;2167;53.448;9.984;2023-02-08T08:02:51;10.97;;;8.00;;
4307;SDS011;2167;53.448;9.984;2023-02-08T08:05:17;33.78;;;16.38;;
4307;SDS011;2167;53.448;9.984;2023-02-08T08:07:43;17.27;;;11.20;;
4307;SDS011;2167;53.448;9.984;2023-02-08T08:10:08;25.10;;;9.33;;
4307;SDS011;2167;53.448;9.984;2023-02-08T08:12:34;20.70;;;10.70;;
4307;SDS011;2167;53.448;9.984;2023-02-08T08:14:59;22.37;;;9.30;;
4307;SDS011;2167;53.448;9.984;2023-02-08T08:17:25;18.70;;;10.23;;
4307;SDS011;2167;53.448;9.984;2023-02-08T08:19:51;29.87;;;14.37;;
4307;SDS011;2167;53.448;9.984;2023-02-08T08:22:17;29.63;;;13.90;;
4307;SDS011;2167;53.448;9.984;2023-02-08T08:24:42;27.50;;;10.47;;
4307;SDS011;2167;53.448;9.984;2023-02-08T08:27:08;20.40;;;11.40;;
4307;SDS011;2167;53.448;9.984;2023-02-08T08:29:34;22.23;;;10.07;;
4307;SDS011;2167;53.448;9.984;2023-02-08T08:32:01;28.77;;;10.40;;
4307;SDS011;2167;53.448;9.984;2023-02-08T08:34:27;29.50;;;12.77;;
4307;SDS011;2167;53.448;9.984;2023-02-08T08:36:59;31.10;;;9.70;;
4307;SDS011;2167;53.448;9.984;2023-02-08T08:39:26;24.80;;;12.50;;
4307;SDS011;2167;53.448;9.984;2023-02-08T08:41:52;27.33;;;12.83;;
4307;SDS011;2167;53.448;9.984;2023-02-08T08:44:21;22.43;;;10.87;;
4307;SDS011;2167;53.448;9.984;2023-02-08T08:46:46;20.23;;;10.80;;
4307;SDS011;2167;53.448;9.984;2023-02-08T08:49:12;22.93;;;10.20;;
4307;SDS011;2167;53.448;9.984;2023-02-08T08:51:38;24.27;;;11.10;;
4307;SDS011;2167;53.448;9.984;2023-02-08T08:54:03;19.60;;;11.47;;
4307;SDS011;2167;53.448;9.984;2023-02-08T08:56:30;18.17;;;11.07;;
4307;SDS011;2167;53.448;9.984;2023-02-08T08:58:56;21.17;;;12.23;;
4307;SDS011;2167;53.448;9.984;2023-02-08T09:01:22;31.67;;;14.27;;
4307;SDS011;2167;53.448;9.984;2023-02-08T09:03:48;24.83;;;11.00;;
4307;SDS011;2167;53.448;9.984;2023-02-08T09:06:14;24.73;;;15.13;;
4307;SDS011;2167;53.448;9.984;2023-02-08T09:08:39;30.60;;;13.50;;
4307;SDS011;2167;53.448;9.984;2023-02-08T09:11:09;24.10;;;11.13;;
4307;SDS011;2167;53.448;9.984;2023-02-08T09:13:38;41.47;;;18.67;;
4307;SDS011;2167;53.448;9.984;2023-02-08T09:16:08;34.30;;;14.03;;
4307;SDS011;2167;53.448;9.984;2023-02-08T09:18:36;26.17;;;13.97;;
4307;SDS011;2167;53.448;9.984;2023-02-08T09:21:05;34.03;;;12.50;;
4307;SDS011;2167;53.448;9.984;2023-02-08T09:23:32;29.13;;;10.67;;
4307;SDS011;2167;53.448;9.984;2023-02-08T09:25:58;43.07;;;14.50;;
4307;SDS011;2167;53.448;9.984;2023-02-08T09:28:25;33.28;;;14.65;;
4307;SDS011;2167;53.448;9.984;2023-02-08T09:30:51;26.17;;;14.90;;
4307;SDS011;2167;53.448;9.984;2023-02-08T09:33:16;25.67;;;11.40;;
4307;SDS011;2167;53.448;9.984;2023-02-08T09:35:42;20.65;;;11.15;;
4307;SDS011;2167;53.448;9.984;2023-02-08T09:38:07;27.60;;;10.20;;
4307;SDS011;2167;53.448;9.984;2023-02-08T09:40:41;34.37;;;11.60;;
4307;SDS011;2167;53.448;9.984;2023-02-08T09:43:20;18.30;;;10.75;;
4307;SDS011;2167;53.448;9.984;2023-02-08T09:45:57;26.20;;;10.83;;
4307;SDS011;2167;53.448;9.984;2023-02-08T09:48:28;23.07;;;10.70;;
4307;SDS011;2167;53.448;9.984;2023-02-08T09:51:10;29.15;;;14.60;;
4307;SDS011;2167;53.448;9.984;2023-02-08T09:54:00;30.17;;;13.80;;
4307;SDS011;2167;53.448;9.984;2023-02-08T09:56:34;30.73;;;12.27;;
4307;SDS011;2167;53.448;9.984;2023-02-08T09:59:04;27.20;;;13.80;;
4307;SDS011;2167;53.448;9.984;2023-02-08T10:01:36;17.50;;;10.30;;
4307;SDS011;2167;53.448;9.984;2023-02-08T10:07:02;36.70;;;18.00;;
4307;SDS011;2167;53.448;9.984;2023-02-08T10:09:27;34.10;;;14.77;;
4307;SDS011;2167;53.448;9.984;2023-02-08T10:12:01;23.67;;;13.50;;
4307;SDS011;2167;53.448;9.984;2023-02-08T10:15:03;32.90;;;13.67;;
4307;SDS011;2167;53.448;9.984;2023-02-08T10:21:13;40.17;;;18.75;;
4307;SDS011;2167;53.448;9.984;2023-02-08T10:26:23;30.37;;;14.40;;
4307;SDS011;2167;53.448;9.984;2023-02-08T10:31:47;29.63;;;12.67;;
4307;SDS011;2167;53.448;9.984;2023-02-08T10:34:49;30.43;;;13.70;;
4307;SDS011;2167;53.448;9.984;2023-02-08T10:37:20;26.20;;;11.60;;
4307;SDS011;2167;53.448;9.984;2023-02-08T10:39:53;23.73;;;11.77;;
4307;SDS011;2167;53.448;9.984;2023-02-08T10:42:21;24.43;;;12.80;;
4307;SDS011;2167;53.448;9.984;2023-02-08T10:45:10;26.03;;;11.93;;
4307;SDS011;2167;53.448;9.984;2023-02-08T10:47:47;29.30;;;13.57;;
4307;SDS011;2167;53.448;9.984;2023-02-08T10:53:00;30.87;;;13.03;;
4307;SDS011;2167;53.448;9.984;2023-02-08T10:55:26;24.60;;;12.70;;
4307;SDS011;2167;53.448;9.984;2023-02-08T10:57:55;26.90;;;11.70;;
4307;SDS011;2167;53.448;9.984;2023-02-08T11:00:25;28.83;;;13.63;;
4307;SDS011;2167;53.448;9.984;2023-02-08T11:03:11;19.73;;;11.63;;
4307;SDS011;2167;53.448;9.984;2023-02-08T11:05:58;24.67;;;12.00;;
4307;SDS011;2167;53.448;9.984;2023-02-08T11:08:24;34.03;;;16.23;;
4307;SDS011;2167;53.448;9.984;2023-02-08T11:10:59;29.57;;;13.53;;
4307;SDS011;2167;53.448;9.984;2023-02-08T11:14:04;36.63;;;13.63;;
4307;SDS011;2167;53.448;9.984;2023-02-08T11:16:24;25.47;;;13.70;;
4307;SDS011;2167;53.448;9.984;2023-02-08T11:18:55;28.67;;;14.50;;
4307;SDS011;2167;53.448;9.984;2023-02-08T11:21:32;29.23;;;13.97;;
4307;SDS011;2167;53.448;9.984;2023-02-08T11:26:47;31.73;;;13.50;;
4307;SDS011;2167;53.448;9.984;2023-02-08T11:34:26;28.80;;;12.67;;
4307;SDS011;2167;53.448;9.984;2023-02-08T11:36:57;33.38;;;14.98;;
4307;SDS011;2167;53.448;9.984;2023-02-08T11:39:39;29.13;;;12.47;;
4307;SDS011;2167;53.448;9.984;2023-02-08T11:42:12;27.17;;;10.20;;
4307;SDS011;2167;53.448;9.984;2023-02-08T11:44:47;36.33;;;16.17;;
4307;SDS011;2167;53.448;9.984;2023-02-08T11:47:15;30.70;;;13.73;;
4307;SDS011;2167;53.448;9.984;2023-02-08T11:49:42;25.83;;;11.20;;
4307;SDS011;2167;53.448;9.984;2023-02-08T11:52:23;30.35;;;13.85;;
4307;SDS011;2167;53.448;9.984;2023-02-08T11:54:50;19.80;;;11.00;;
4307;SDS011;2167;53.448;9.984;2023-02-08T11:57:18;18.47;;;10.50;;
4307;SDS011;2167;53.448;9.984;2023-02-08T11:59:45;27.42;;;14.88;;
4307;SDS011;2167;53.448;9.984;2023-02-08T12:02:30;25.47;;;12.80;;
4307;SDS011;2167;53.448;9.984;2023-02-08T12:05:03;25.63;;;10.35;;
4307;SDS011;2167;53.448;9.984;2023-02-08T12:10:47;19.00;;;8.13;;
4307;SDS011;2167;53.448;9.984;2023-02-08T12:16:58;16.73;;;8.97;;
4307;SDS011;2167;53.448;9.984;2023-02-08T12:22:32;13.23;;;6.40;;
4307;SDS011;2167;53.448;9.984;2023-02-08T12:33:39;15.20;;;7.77;;
4307;SDS011;2167;53.448;9.984;2023-02-08T12:36:19;12.77;;;6.67;;
4307;SDS011;2167;53.448;9.984;2023-02-08T12:45:07;13.23;;;6.73;;
4307;SDS011;2167;53.448;9.984;2023-02-08T12:53:43;10.00;;;6.13;;
4307;SDS011;2167;53.448;9.984;2023-02-08T12:56:12;12.55;;;7.10;;
4307;SDS011;2167;53.448;9.984;2023-02-08T12:58:43;18.00;;;6.20;;
4307;SDS011;2167;53.448;9.984;2023-02-08T13:04:26;13.02;;;6.13;;
4307;SDS011;2167;53.448;9.984;2023-02-08T13:06:58;12.93;;;5.87;;
4307;SDS011;2167;53.448;9.984;2023-02-08T13:11:58;17.30;;;6.03;;
4307;SDS011;2167;53.448;9.984;2023-02-08T13:18:02;5.00;;;4.13;;
4307;SDS011;2167;53.448;9.984;2023-02-08T13:23:35;6.17;;;3.40;;
4307;SDS011;2167;53.448;9.984;2023-02-08T13:26:26;9.73;;;4.80;;
4307;SDS011;2167;53.448;9.984;2023-02-08T13:28:57;9.57;;;4.80;;
4307;SDS011;2167;53.448;9.984;2023-02-08T13:31:28;6.50;;;3.80;;
4307;SDS011;2167;53.448;9.984;2023-02-08T13:36:28;13.67;;;5.03;;
4307;SDS011;2167;53.448;9.984;2023-02-08T13:38:59;8.68;;;4.60;;
4307;SDS011;2167;53.448;9.984;2023-02-08T13:41:29;9.17;;;4.53;;
4307;SDS011;2167;53.448;9.984;2023-02-08T13:44:16;8.47;;;3.70;;
4307;SDS011;2167;53.448;9.984;2023-02-08T13:46:45;15.07;;;5.43;;
4307;SDS011;2167;53.448;9.984;2023-02-08T13:58:00;10.67;;;4.37;;
4307;SDS011;2167;53.448;9.984;2023-02-08T14:00:28;7.53;;;4.20;;
4307;SDS011;2167;53.448;9.984;2023-02-08T14:05:46;9.10;;;4.70;;
4307;SDS011;2167;53.448;9.984;2023-02-08T14:08:34;8.07;;;3.87;;
4307;SDS011;2167;53.448;9.984;2023-02-08T14:11:40;9.53;;;5.70;;
4307;SDS011;2167;53.448;9.984;2023-02-08T14:14:29;7.60;;;4.20;;
4307;SDS011;2167;53.448;9.984;2023-02-08T14:19:28;11.30;;;5.80;;
4307;SDS011;2167;53.448;9.984;2023-02-08T14:22:02;15.30;;;4.90;;
4307;SDS011;2167;53.448;9.984;2023-02-08T14:24:47;9.77;;;5.20;;
4307;SDS011;2167;53.448;9.984;2023-02-08T14:28:06;11.37;;;4.77;;
4307;SDS011;2167;53.448;9.984;2023-02-08T14:30:27;9.43;;;4.27;;
4307;SDS011;2167;53.448;9.984;2023-02-08T14:35:27;11.67;;;4.83;;
4307;SDS011;2167;53.448;9.984;2023-02-08T14:38:30;11.00;;;4.50;;
4307;SDS011;2167;53.448;9.984;2023-02-08T14:40:47;8.10;;;3.27;;
4307;SDS011;2167;53.448;9.984;2023-02-08T14:43:34;11.23;;;5.30;;
4307;SDS011;2167;53.448;9.984;2023-02-08T14:46:46;8.57;;;5.07;;
4307;SDS011;2167;53.448;9.984;2023-02-08T14:49:19;7.67;;;4.60;;
4307;SDS011;2167;53.448;9.984;2023-02-08T14:51:53;10.33;;;5.60;;
4307;SDS011;2167;53.448;9.984;2023-02-08T14:54:23;13.27;;;3.60;;
4307;SDS011;2167;53.448;9.984;2023-02-08T14:57:16;8.63;;;4.10;;
4307;SDS011;2167;53.448;9.984;2023-02-08T14:59:52;6.90;;;4.00;;
4307;SDS011;2167;53.448;9.984;2023-02-08T15:02:23;9.80;;;3.93;;
4307;SDS011;2167;53.448;9.984;2023-02-08T15:04:50;11.97;;;5.30;;
4307;SDS011;2167;53.448;9.984;2023-02-08T15:07:22;10.80;;;4.50;;
4307;SDS011;2167;53.448;9.984;2023-02-08T15:09:51;9.47;;;5.10;;
4307;SDS011;2167;53.448;9.984;2023-02-08T15:12:24;13.73;;;6.70;;
4307;SDS011;2167;53.448;9.984;2023-02-08T15:14:53;25.63;;;12.57;;
4307;SDS011;2167;53.448;9.984;2023-02-08T15:20:24;11.20;;;8.20;;
4307;SDS011;2167;53.448;9.984;2023-02-08T15:22:59;18.50;;;9.93;;
4307;SDS011;2167;53.448;9.984;2023-02-08T15:25:28;16.40;;;9.00;;
4307;SDS011;2167;53.448;9.984;2023-02-08T15:27:59;21.67;;;10.63;;
4307;SDS011;2167;53.448;9.984;2023-02-08T15:32:57;14.87;;;7.50;;
4307;SDS011;2167;53.448;9.984;2023-02-08T15:35:31;12.30;;;7.77;;
4307;SDS011;2167;53.448;9.984;2023-02-08T15:37:58;17.03;;;8.93;;
4307;SDS011;2167;53.448;9.984;2023-02-08T15:40:26;16.67;;;8.93;;
4307;SDS011;2167;53.448;9.984;2023-02-08T15:42:54;16.23;;;8.60;;
4307;SDS011;2167;53.448;9.984;2023-02-08T15:45:26;16.53;;;9.03;;
4307;SDS011;2167;53.448;9.984;2023-02-08T15:47:55;16.50;;;8.83;;
4307;SDS011;2167;53.448;9.984;2023-02-08T15:50:22;20.60;;;9.37;;
4307;SDS011;2167;53.448;9.984;2023-02-08T15:52:55;29.27;;;14.02;;
4307;SDS011;2167;53.448;9.984;2023-02-08T15:55:23;18.93;;;7.97;;
4307;SDS011;2167;53.448;9.984;2023-02-08T15:57:56;18.30;;;8.17;;
4307;SDS011;2167;53.448;9.984;2023-02-08T16:00:32;12.07;;;7.57;;
4307;SDS011;2167;53.448;9.984;2023-02-08T16:03:06;19.55;;;11.18;;
4307;SDS011;2167;53.448;9.984;2023-02-08T16:05:39;18.07;;;8.80;;
4307;SDS011;2167;53.448;9.984;2023-02-08T16:08:07;17.20;;;7.67;;
4307;SDS011;2167;53.448;9.984;2023-02-08T16:10:46;16.13;;;9.53;;
4307;SDS011;2167;53.448;9.984;2023-02-08T16:13:19;13.73;;;7.03;;
4307;SDS011;2167;53.448;9.984;2023-02-08T16:15:51;13.73;;;6.97;;
4307;SDS011;2167;53.448;9.984;2023-02-08T16:23:58;10.83;;;7.37;;
4307;SDS011;2167;53.448;9.984;2023-02-08T16:26:31;21.50;;;9.60;;
4307;SDS011;2167;53.448;9.984;2023-02-08T16:29:03;14.65;;;8.00;;
4307;SDS011;2167;53.448;9.984;2023-02-08T16:31:32;13.40;;;6.73;;
4307;SDS011;2167;53.448;9.984;2023-02-08T16:34:03;17.73;;;8.67;;
4307;SDS011;2167;53.448;9.984;2023-02-08T16:36:36;15.90;;;8.70;;
4307;SDS011;2167;53.448;9.984;2023-02-08T16:44:26;11.93;;;7.00;;
4307;SDS011;2167;53.448;9.984;2023-02-08T16:46:58;12.10;;;6.30;;
4307;SDS011;2167;53.448;9.984;2023-02-08T16:49:24;16.30;;;9.30;;
4307;SDS011;2167;53.448;9.984;2023-02-08T16:51:54;20.20;;;8.80;;
4307;SDS011;2167;53.448;9.984;2023-02-08T16:54:21;15.53;;;7.93;;
4307;SDS011;2167;53.448;9.984;2023-02-08T16:56:49;18.53;;;8.00;;
4307;SDS011;2167;53.448;9.984;2023-02-08T16:59:19;17.70;;;7.80;;
4307;SDS011;2167;53.448;9.984;2023-02-08T17:01:46;15.27;;;8.30;;
4307;SDS011;2167;53.448;9.984;2023-02-08T17:04:14;13.10;;;7.30;;
4307;SDS011;2167;53.448;9.984;2023-02-08T17:06:41;17.97;;;9.77;;
4307;SDS011;2167;53.448;9.984;2023-02-08T17:09:10;17.33;;;9.73;;
4307;SDS011;2167;53.448;9.984;2023-02-08T17:11:36;12.60;;;8.40;;
4307;SDS011;2167;53.448;9.984;2023-02-08T17:14:03;16.30;;;9.77;;
4307;SDS011;2167;53.448;9.984;2023-02-08T17:16:31;23.00;;;7.50;;
4307;SDS011;2167;53.448;9.984;2023-02-08T17:18:58;15.97;;;8.30;;
4307;SDS011;2167;53.448;9.984;2023-02-08T17:21:25;17.10;;;9.70;;
4307;SDS011;2167;53.448;9.984;2023-02-08T17:23:52;15.50;;;9.17;;
4307;SDS011;2167;53.448;9.984;2023-02-08T17:26:19;16.30;;;9.33;;
4307;SDS011;2167;53.448;9.984;2023-02-08T17:28:47;14.17;;;8.33;;
4307;SDS011;2167;53.448;9.984;2023-02-08T17:31:14;27.15;;;12.60;;
4307;SDS011;2167;53.448;9.984;2023-02-08T17:33:41;19.57;;;9.90;;
4307;SDS011;2167;53.448;9.984;2023-02-08T17:36:07;22.70;;;10.47;;
4307;SDS011;2167;53.448;9.984;2023-02-08T17:38:35;20.90;;;9.00;;
4307;SDS011;2167;53.448;9.984;2023-02-08T17:41:19;16.07;;;9.07;;
4307;SDS011;2167;53.448;9.984;2023-02-08T17:43:48;20.47;;;8.97;;
4307;SDS011;2167;53.448;9.984;2023-02-08T17:46:21;18.37;;;7.60;;
4307;SDS011;2167;53.448;9.984;2023-02-08T17:48:49;19.57;;;8.70;;
4307;SDS011;2167;53.448;9.984;2023-02-08T17:51:16;14.43;;;8.93;;
4307;SDS011;2167;53.448;9.984;2023-02-08T17:53:43;16.53;;;9.33;;
4307;SDS011;2167;53.448;9.984;2023-02-08T17:56:13;17.17;;;8.60;;
4307;SDS011;2167;53.448;9.984;2023-02-08T17:58:46;21.43;;;8.50;;
4307;SDS011;2167;53.448;9.984;2023-02-08T18:01:14;20.30;;;9.07;;
4307;SDS011;2167;53.448;9.984;2023-02-08T18:03:45;22.23;;;10.53;;
4307;SDS011;2167;53.448;9.984;2023-02-08T18:06:12;24.10;;;12.25;;
4307;SDS011;2167;53.448;9.984;2023-02-08T18:08:39;19.23;;;10.10;;
4307;SDS011;2167;53.448;9.984;2023-02-08T18:11:09;14.07;;;6.90;;
4307;SDS011;2167;53.448;9.984;2023-02-08T18:13:40;25.15;;;12.45;;
4307;SDS011;2167;53.448;9.984;2023-02-08T18:16:10;20.80;;;10.77;;
4307;SDS011;2167;53.448;9.984;2023-02-08T18:18:41;15.83;;;7.93;;
4307;SDS011;2167;53.448;9.984;2023-02-08T18:21:10;27.20;;;9.43;;
4307;SDS011;2167;53.448;9.984;2023-02-08T18:23:41;18.30;;;10.10;;
4307;SDS011;2167;53.448;9.984;2023-02-08T18:26:09;12.43;;;6.13;;
4307;SDS011;2167;53.448;9.984;2023-02-08T18:28:39;22.73;;;8.60;;
4307;SDS011;2167;53.448;9.984;2023-02-08T18:31:06;12.33;;;7.43;;
4307;SDS011;2167;53.448;9.984;2023-02-08T18:33:34;16.90;;;8.30;;
4307;SDS011;2167;53.448;9.984;2023-02-08T18:36:00;15.50;;;7.83;;
4307;SDS011;2167;53.448;9.984;2023-02-08T18:38:26;15.17;;;8.30;;
4307;SDS011;2167;53.448;9.984;2023-02-08T18:40:52;11.67;;;6.00;;
4307;SDS011;2167;53.448;9.984;2023-02-08T18:43:18;13.27;;;7.37;;
4307;SDS011;2167;53.448;9.984;2023-02-08T18:45:45;30.40;;;13.68;;
4307;SDS011;2167;53.448;9.984;2023-02-08T18:48:21;20.80;;;9.40;;
4307;SDS011;2167;53.448;9.984;2023-02-08T18:50:52;16.07;;;9.47;;
4307;SDS011;2167;53.448;9.984;2023-02-08T18:53:20;11.00;;;8.07;;
4307;SDS011;2167;53.448;9.984;2023-02-08T18:55:51;16.67;;;8.13;;
4307;SDS011;2167;53.448;9.984;2023-02-08T18:58:20;16.67;;;10.27;;
4307;SDS011;2167;53.448;9.984;2023-02-08T19:00:46;20.77;;;9.87;;
4307;SDS011;2167;53.448;9.984;2023-02-08T19:03:13;15.63;;;8.93;;
4307;SDS011;2167;53.448;9.984;2023-02-08T19:05:39;15.03;;;7.90;;
4307;SDS011;2167;53.448;9.984;2023-02-08T19:08:05;13.00;;;7.80;;
4307;SDS011;2167;53.448;9.984;2023-02-08T19:10:33;15.10;;;7.30;;
4307;SDS011;2167;53.448;9.984;2023-02-08T19:13:00;15.57;;;8.27;;
4307;SDS011;2167;53.448;9.984;2023-02-08T19:15:26;17.40;;;8.47;;
4307;SDS011;2167;53.448;9.984;2023-02-08T19:17:52;21.55;;;11.43;;
4307;SDS011;2167;53.448;9.984;2023-02-08T19:20:19;24.73;;;10.20;;
4307;SDS011;2167;53.448;9.984;2023-02-08T19:22:45;21.40;;;9.93;;
4307;SDS011;2167;53.448;9.984;2023-02-08T19:25:11;17.67;;;8.67;;
4307;SDS011;2167;53.448;9.984;2023-02-08T19:27:37;25.07;;;11.67;;
4307;SDS011;2167;53.448;9.984;2023-02-08T19:30:03;16.73;;;9.80;;
4307;SDS011;2167;53.448;9.984;2023-02-08T19:32:29;25.63;;;10.37;;
4307;SDS011;2167;53.448;9.984;2023-02-08T19:34:55;20.67;;;8.90;;
4307;SDS011;2167;53.448;9.984;2023-02-08T19:37:21;20.27;;;9.23;;
4307;SDS011;2167;53.448;9.984;2023-02-08T19:39:46;18.60;;;10.40;;
4307;SDS011;2167;53.448;9.984;2023-02-08T19:42:12;30.70;;;12.77;;
4307;SDS011;2167;53.448;9.984;2023-02-08T19:44:38;22.73;;;10.30;;
4307;SDS011;2167;53.448;9.984;2023-02-08T19:47:03;20.30;;;9.97;;
4307;SDS011;2167;53.448;9.984;2023-02-08T19:49:29;18.73;;;8.90;;
4307;SDS011;2167;53.448;9.984;2023-02-08T19:51:55;26.67;;;14.07;;
4307;SDS011;2167;53.448;9.984;2023-02-08T19:54:21;23.23;;;12.23;;
4307;SDS011;2167;53.448;9.984;2023-02-08T19:56:47;18.47;;;11.30;;
4307;SDS011;2167;53.448;9.984;2023-02-08T19:59:18;19.57;;;9.77;;
4307;SDS011;2167;53.448;9.984;2023-02-08T20:01:45;19.80;;;10.50;;
4307;SDS011;2167;53.448;9.984;2023-02-08T20:04:11;29.05;;;15.80;;
4307;SDS011;2167;53.448;9.984;2023-02-08T20:06:37;26.57;;;13.60;;
4307;SDS011;2167;53.448;9.984;2023-02-08T20:09:04;24.63;;;12.30;;
4307;SDS011;2167;53.448;9.984;2023-02-08T20:11:37;18.30;;;9.50;;
4307;SDS011;2167;53.448;9.984;2023-02-08T20:14:04;18.10;;;9.73;;